Current Weather Conditions: station 62114

sailwx.info

See reports from other nearby stations

no recent reports received from weather station ID 62114

Tides Pressure Air temp Water temp Dewpoint Dewpoint depression Visibility Wind speed Wind direction Waves Ship positions
date/time (UTC)wind fromknots sea level pressurealtimeterstation pressurevisibilityair tempwater tempwave heightnotes
2017-Feb-20 23:00 290 27 6.0
2017-Feb-20 22:00 280 33 7.3
2017-Feb-20 21:00 290 31 7.6
2017-Feb-20 20:00 290 32 7.9
2017-Feb-20 19:00 290 32 7.9
2017-Feb-20 18:00 290 32 8.1
2017-Feb-20 17:00 290 31 8.2
2017-Feb-20 16:00 280 31 8.3
2017-Feb-20 15:00 280 27 8.3
2017-Feb-20 14:00 290 26 8.4
2017-Feb-20 13:00 300 31 8.5
2017-Feb-20 12:00 290 31 8.1
2017-Feb-20 11:00 280 31 8.7
2017-Feb-20 10:00 270 31 8.9
2017-Feb-20 09:00 250 31 9.0
2017-Feb-20 08:00 250 28 8.8
2017-Feb-20 07:00 260 28 8.8
2017-Feb-20 06:00 260 27 9.0
2017-Feb-20 05:00 260 24 8.6
2017-Feb-20 04:00 270 25 8.4
2017-Feb-20 03:00 280 26 8.6
2017-Feb-20 02:00 290 25 8.7
2017-Feb-20 01:00 280 24 8.9
2017-Feb-20 00:00 270 26 9.1
2017-Feb-19 23:00 260 28 9.4
2017-Feb-19 22:00 250 28 9.2
2017-Feb-19 21:00 240 27 9.5
2017-Feb-19 20:00 230 26 9.0
2017-Feb-19 19:00 230 22 8.6
2017-Feb-19 18:00 220 21 8.3
2017-Feb-19 17:00 230 18 7.8
2017-Feb-19 16:00 240 17 7.8
2017-Feb-19 15:00 260 17 7.6
2017-Feb-19 14:00 260 15 7.4
2017-Feb-19 13:00 280 19 7.6
2017-Feb-19 12:00 290 20 7.1
2017-Feb-19 11:00 280 20 7.5
2017-Feb-19 10:00 280 19 7.3
2017-Feb-19 09:00 290 17 7.6